Terminal Aerodrome Forecast
Issued by NWS

Home | Current Version | Previous Version | Text Only | Print | Product List | Glossary Off
Versions: 1 2 3 4 5 6 7 8 9 10 11 12 13 14 15 16 17

000
FTUS42 KMHX 311321 AAA
TAFOAJ
TAF AMD
KOAJ 311321Z 3113/0112 02007KT P6SM OVC009
     FM311430 34006KT P6SM SCT030
     FM311900 35005KT P6SM VCTS BKN050CB
     FM010000 15003KT P6SM VCSH SCT040 BKN250
     FM010800 20002KT 6SM BR VCSH BKN040
      AMD LTD TO CLD VIS AND WIND=

USA.gov is the U.S. government's official web portal to all federal, state and local government web resources and services.